createdAt,value
2023-01-05T00:01:39.879Z,6.68
2023-01-05T00:04:07.181Z,8.50
2023-01-05T00:06:34.432Z,9.02
2023-01-05T00:09:01.183Z,9.98
2023-01-05T00:11:28.103Z,10.75
2023-01-05T00:13:54.654Z,8.07
2023-01-05T00:16:21.176Z,8.68
2023-01-05T00:18:47.732Z,9.20
2023-01-05T00:21:15.461Z,6.18
2023-01-05T00:23:42.032Z,10.30
2023-01-05T00:26:08.670Z,7.93
2023-01-05T00:28:35.256Z,7.88
2023-01-05T00:31:02.511Z,8.70
2023-01-05T00:33:29.042Z,5.53
2023-01-05T00:35:55.758Z,5.53
2023-01-05T00:38:22.218Z,6.85
2023-01-05T00:40:50.016Z,7.07
2023-01-05T00:43:16.536Z,12.05
2023-01-05T00:45:44.021Z,11.95
2023-01-05T00:48:10.595Z,8.75
2023-01-05T00:50:37.069Z,9.13
2023-01-05T00:53:03.615Z,6.78
2023-01-05T00:55:30.105Z,9.25
2023-01-05T00:57:56.583Z,8.90
2023-01-05T01:00:23.095Z,7.65
2023-01-05T01:02:51.847Z,8.27
2023-01-05T01:05:18.987Z,12.85
2023-01-05T01:07:45.536Z,12.75
2023-01-05T01:10:12.326Z,11.73
2023-01-05T01:12:38.875Z,11.43
2023-01-05T01:15:05.962Z,6.97
2023-01-05T01:17:32.839Z,13.82
2023-01-05T01:19:59.415Z,10.05
2023-01-05T01:22:26.001Z,12.45
2023-01-05T01:24:52.609Z,11.80
2023-01-05T01:27:19.097Z,10.82
2023-01-05T01:29:45.606Z,10.77
2023-01-05T01:32:12.193Z,10.88
2023-01-05T01:34:38.660Z,7.25
2023-01-05T01:37:05.162Z,10.10
2023-01-05T01:39:31.761Z,10.77
2023-01-05T01:41:58.326Z,11.52
2023-01-05T01:44:51.082Z,13.30
2023-01-05T01:47:23.554Z,8.30
2023-01-05T01:49:50.966Z,13.18
2023-01-05T01:52:20.386Z,11.43
2023-01-05T01:54:46.958Z,14.82
2023-01-05T01:57:14.419Z,6.22
2023-01-05T01:59:41.539Z,11.15
2023-01-05T02:02:09.108Z,8.70
2023-01-05T02:04:37.276Z,12.07
2023-01-05T02:07:04.940Z,7.15
2023-01-05T02:09:32.006Z,10.15
2023-01-05T02:12:07.037Z,11.10
2023-01-05T02:15:04.877Z,16.45
2023-01-05T02:17:49.185Z,7.47
2023-01-05T02:20:34.571Z,6.68
2023-01-05T02:23:25.848Z,12.55
2023-01-05T02:26:01.264Z,11.20
2023-01-05T02:28:36.707Z,11.27
2023-01-05T02:31:18.438Z,14.07
2023-01-05T02:36:48.288Z,13.77
2023-01-05T02:39:22.664Z,17.60
2023-01-05T02:41:49.161Z,9.43
2023-01-05T02:44:17.989Z,11.02
2023-01-05T02:46:46.032Z,12.20
2023-01-05T02:49:16.821Z,10.32
2023-01-05T02:51:54.150Z,13.27
2023-01-05T02:54:33.878Z,14.10
2023-01-05T02:57:23.034Z,10.52
2023-01-05T02:59:54.049Z,14.88
2023-01-05T03:02:28.041Z,8.85
2023-01-05T03:05:01.568Z,12.05
2023-01-05T03:07:30.855Z,17.73
2023-01-05T03:09:57.535Z,11.63
2023-01-05T03:12:35.277Z,14.68
2023-01-05T03:15:11.958Z,11.60
2023-01-05T03:17:45.456Z,16.30
2023-01-05T03:20:14.466Z,13.02
2023-01-05T03:22:44.893Z,9.70
2023-01-05T03:25:13.618Z,8.73
2023-01-05T03:27:41.539Z,15.77
2023-01-05T03:30:08.943Z,9.60
2023-01-05T03:32:43.368Z,13.35
2023-01-05T03:35:17.211Z,11.07
2023-01-05T03:37:51.113Z,11.35
2023-01-05T03:40:24.538Z,10.00
2023-01-05T03:42:51.491Z,5.82
2023-01-05T03:45:18.800Z,12.43
2023-01-05T03:47:45.446Z,12.40
2023-01-05T03:50:12.422Z,15.20
2023-01-05T03:52:38.968Z,13.15
2023-01-05T03:55:05.840Z,11.38
2023-01-05T03:57:32.370Z,7.57
2023-01-05T03:59:58.875Z,13.75
2023-01-05T04:02:25.573Z,16.23
2023-01-05T04:04:52.137Z,8.88
2023-01-05T04:07:18.662Z,7.07
2023-01-05T04:09:45.186Z,10.18
2023-01-05T04:12:11.655Z,6.82
2023-01-05T04:14:38.343Z,13.27
2023-01-05T04:17:04.818Z,11.00
2023-01-05T04:19:31.379Z,12.85
2023-01-05T04:21:57.895Z,10.30
2023-01-05T04:24:24.628Z,9.40
2023-01-05T04:26:51.164Z,14.23
2023-01-05T04:29:17.636Z,10.77
2023-01-05T04:31:44.188Z,17.15
2023-01-05T04:34:10.715Z,11.32
2023-01-05T04:36:37.194Z,9.82
2023-01-05T04:39:03.997Z,8.98
2023-01-05T04:41:30.567Z,9.65
2023-01-05T04:43:57.063Z,10.85
2023-01-05T04:46:23.697Z,8.82
2023-01-05T04:48:50.226Z,13.25
2023-01-05T04:51:16.702Z,10.98
2023-01-05T04:53:43.287Z,13.32
2023-01-05T04:56:09.845Z,13.30
2023-01-05T04:58:36.931Z,10.82
2023-01-05T05:01:04.696Z,11.75
2023-01-05T05:03:33.320Z,16.80
2023-01-05T05:06:00.259Z,10.35
2023-01-05T05:08:26.844Z,11.38
2023-01-05T05:10:53.403Z,11.88
2023-01-05T05:13:19.890Z,16.55
2023-01-05T05:15:46.475Z,14.25
2023-01-05T05:18:13.024Z,12.38
2023-01-05T05:20:43.210Z,17.83
2023-01-05T05:23:09.977Z,11.88
2023-01-05T05:25:36.507Z,16.88
2023-01-05T05:28:03.025Z,17.25
2023-01-05T05:30:29.592Z,14.98
2023-01-05T05:32:56.123Z,13.73
2023-01-05T05:35:22.874Z,9.25
2023-01-05T05:37:56.050Z,9.75
2023-01-05T05:40:23.263Z,10.30
2023-01-05T05:42:49.815Z,14.75
2023-01-05T05:45:16.494Z,12.32
2023-01-05T05:47:43.682Z,15.77
2023-01-05T05:50:10.446Z,15.98
2023-01-05T05:52:37.042Z,14.43
2023-01-05T05:55:04.082Z,15.75
2023-01-05T05:57:30.588Z,9.20
2023-01-05T05:59:57.136Z,12.50
2023-01-05T06:02:23.653Z,12.95
2023-01-05T06:04:50.166Z,17.58
2023-01-05T06:07:16.724Z,20.02
2023-01-05T06:09:43.199Z,11.18
2023-01-05T06:12:09.876Z,10.20
2023-01-05T06:14:36.511Z,16.10
2023-01-05T06:17:03.035Z,11.90
2023-01-05T06:19:29.573Z,14.25
2023-01-05T06:21:56.062Z,13.73
2023-01-05T06:24:22.533Z,13.88
2023-01-05T06:26:49.031Z,18.58
2023-01-05T06:29:15.573Z,8.48
2023-01-05T06:31:42.143Z,10.25
2023-01-05T06:34:08.669Z,12.48
2023-01-05T06:36:35.226Z,15.70
2023-01-05T06:39:01.787Z,17.73
2023-01-05T06:41:28.340Z,11.10
2023-01-05T06:43:54.925Z,8.48
2023-01-05T06:46:21.496Z,13.45
2023-01-05T06:48:48.222Z,16.05
2023-01-05T06:51:14.752Z,10.32
2023-01-05T06:53:46.801Z,13.82
2023-01-05T06:56:13.467Z,8.05
2023-01-05T06:58:40.091Z,12.65
2023-01-05T07:01:06.693Z,12.25
2023-01-05T07:03:33.350Z,11.30
2023-01-05T07:05:59.986Z,17.13
2023-01-05T07:08:26.573Z,12.32
2023-01-05T07:10:53.114Z,12.55
2023-01-05T07:13:19.624Z,5.90
2023-01-05T07:15:46.130Z,14.20
2023-01-05T07:18:12.684Z,10.13
2023-01-05T07:20:39.246Z,20.73
2023-01-05T07:23:05.766Z,13.63
2023-01-05T07:25:32.281Z,12.55
2023-01-05T07:27:58.891Z,13.90
2023-01-05T07:30:25.558Z,16.08
2023-01-05T07:32:52.055Z,12.40
2023-01-05T07:35:18.576Z,14.88
2023-01-05T07:37:45.109Z,15.70
2023-01-05T07:40:12.112Z,14.43
2023-01-05T07:42:38.637Z,12.32
2023-01-05T07:45:05.771Z,9.15
2023-01-05T07:47:32.379Z,12.48
2023-01-05T07:49:58.907Z,15.77
2023-01-05T07:52:25.446Z,13.05
2023-01-05T07:54:52.217Z,20.67
2023-01-05T07:57:18.740Z,15.10
2023-01-05T07:59:45.236Z,14.55
2023-01-05T08:02:11.996Z,14.82
2023-01-05T08:04:38.758Z,12.30
2023-01-05T08:07:06.142Z,13.73
2023-01-05T08:09:32.642Z,28.98
2023-01-05T08:11:59.142Z,19.75
2023-01-05T08:14:25.705Z,23.45
2023-01-05T08:16:52.356Z,17.05
2023-01-05T08:19:18.983Z,22.85
2023-01-05T08:21:45.506Z,13.35
2023-01-05T08:24:12.100Z,12.90
2023-01-05T08:26:38.763Z,14.38
2023-01-05T08:29:05.465Z,15.63
2023-01-05T08:31:32.202Z,17.33
2023-01-05T08:33:59.253Z,18.00
2023-01-05T08:36:26.543Z,9.48
2023-01-05T08:38:54.593Z,15.43
2023-01-05T08:41:29.043Z,18.08
2023-01-05T08:44:01.037Z,16.27
2023-01-05T08:46:31.336Z,16.85
2023-01-05T08:48:59.431Z,11.60
2023-01-05T08:51:26.759Z,12.98
2023-01-05T08:53:53.796Z,11.80
2023-01-05T08:56:22.458Z,16.02
2023-01-05T08:58:49.079Z,17.98
2023-01-05T09:01:19.310Z,12.07
2023-01-05T09:03:45.976Z,22.15
2023-01-05T09:06:13.442Z,19.65
2023-01-05T09:08:41.189Z,16.73
2023-01-05T09:11:22.672Z,18.55
2023-01-05T09:13:52.850Z,14.68
2023-01-05T09:16:56.831Z,12.75
2023-01-05T09:19:10.134Z,10.57
2023-01-05T09:21:37.002Z,16.42
2023-01-05T09:24:03.656Z,20.45
2023-01-05T09:26:30.208Z,11.88
2023-01-05T09:28:56.709Z,9.18
2023-01-05T09:31:23.612Z,15.02
2023-01-05T09:33:51.078Z,15.27
2023-01-05T09:36:19.038Z,15.10
2023-01-05T09:38:49.933Z,14.35
2023-01-05T09:41:26.091Z,18.52
2023-01-05T09:43:57.151Z,13.32
2023-01-05T09:46:30.074Z,18.00
2023-01-05T09:49:01.050Z,16.92
2023-01-05T09:51:29.161Z,19.52
2023-01-05T09:53:56.447Z,18.92
2023-01-05T09:57:07.468Z,13.57
2023-01-05T09:59:33.198Z,24.42
2023-01-05T10:02:03.342Z,17.38
2023-01-05T10:04:33.763Z,13.10
2023-01-05T10:07:05.350Z,9.73
2023-01-05T10:09:36.966Z,10.52
2023-01-05T10:12:09.221Z,14.75
2023-01-05T10:14:59.565Z,10.45
2023-01-05T10:17:41.048Z,16.75
2023-01-05T10:20:16.149Z,13.82
2023-01-05T10:23:03.235Z,19.75
2023-01-05T10:25:40.149Z,12.02
2023-01-05T10:28:28.042Z,16.77
2023-01-05T10:31:02.893Z,17.08
2023-01-05T10:33:53.645Z,11.85
2023-01-05T10:37:14.721Z,13.25
2023-01-05T10:40:07.962Z,11.00
2023-01-05T10:42:37.439Z,14.95
2023-01-05T10:45:04.840Z,16.23
2023-01-05T10:47:35.671Z,13.38
2023-01-05T10:50:03.320Z,16.88
2023-01-05T10:52:30.041Z,14.93
2023-01-05T10:54:58.039Z,16.45
2023-01-05T10:57:35.350Z,23.70
2023-01-05T11:00:15.096Z,9.95
2023-01-05T11:02:46.009Z,15.57
2023-01-05T11:05:31.862Z,13.55
2023-01-05T11:08:01.994Z,13.68
2023-01-05T11:10:28.473Z,13.25
2023-01-05T11:13:02.501Z,14.27
2023-01-05T11:15:32.356Z,14.95
2023-01-05T11:17:59.309Z,18.48
2023-01-05T11:20:27.947Z,15.82
2023-01-05T11:22:55.552Z,16.30
2023-01-05T11:25:29.583Z,16.42
2023-01-05T11:28:17.189Z,14.55
2023-01-05T11:31:02.629Z,12.35
2023-01-05T11:33:31.854Z,13.63
2023-01-05T11:35:59.256Z,11.27
2023-01-05T11:38:28.585Z,17.52
2023-01-05T11:40:57.339Z,14.38
2023-01-05T11:43:27.011Z,18.05
2023-01-05T11:46:00.192Z,13.00
2023-01-05T11:48:30.095Z,12.13
2023-01-05T11:53:34.039Z,22.90
2023-01-05T11:56:22.256Z,13.27
2023-01-05T11:58:50.879Z,13.73
2023-01-05T12:01:40.131Z,11.77
2023-01-05T12:04:38.931Z,13.43
2023-01-05T12:07:14.034Z,19.48
2023-01-05T12:10:08.571Z,16.38
2023-01-05T12:12:57.575Z,11.45
2023-01-05T12:15:44.421Z,13.63
2023-01-05T12:18:19.950Z,18.30
2023-01-05T12:20:55.648Z,11.07
2023-01-05T12:23:59.644Z,15.90
2023-01-05T12:26:29.159Z,14.88
2023-01-05T12:38:23.750Z,14.00
2023-01-05T12:41:00.912Z,12.32
2023-01-05T12:43:58.107Z,12.85
2023-01-05T12:46:36.314Z,11.85
2023-01-05T12:49:13.222Z,13.45
2023-01-05T12:51:46.680Z,15.10
2023-01-05T12:54:44.075Z,10.52
2023-01-05T12:57:24.997Z,13.43
2023-01-05T13:00:00.863Z,13.82
2023-01-05T13:02:33.386Z,18.50
2023-01-05T13:05:03.003Z,11.27
2023-01-05T13:07:38.166Z,13.65
2023-01-05T13:10:46.651Z,18.08
2023-01-05T13:13:17.298Z,16.35
2023-01-05T13:16:03.338Z,16.08
2023-01-05T13:18:31.906Z,10.38
2023-01-05T13:21:01.833Z,12.27
2023-01-05T13:23:50.955Z,17.52
2023-01-05T13:26:21.890Z,19.63
2023-01-05T13:28:54.478Z,9.88
2023-01-05T13:31:23.716Z,11.07
2023-01-05T13:34:09.122Z,15.45
2023-01-05T13:36:54.445Z,13.02
2023-01-05T13:39:50.219Z,19.08
2023-01-05T13:42:33.061Z,19.27
2023-01-05T13:45:14.339Z,15.60
2023-01-05T13:47:56.601Z,15.35
2023-01-05T13:50:45.449Z,12.85
2023-01-05T13:56:01.111Z,16.15
2023-01-05T13:58:27.593Z,19.77
2023-01-05T14:00:54.299Z,14.68
2023-01-05T14:03:29.850Z,13.75
2023-01-05T14:05:59.321Z,17.60
2023-01-05T14:08:32.638Z,18.58
2023-01-05T14:11:16.265Z,14.52
2023-01-05T14:13:51.852Z,13.73
2023-01-05T14:16:33.510Z,14.32
2023-01-05T14:21:50.914Z,15.73
2023-01-05T14:24:33.102Z,13.10
2023-01-05T14:27:05.357Z,18.60
2023-01-05T14:29:59.941Z,17.23
2023-01-05T14:32:40.640Z,11.82
2023-01-05T14:35:29.629Z,12.27
2023-01-05T14:38:01.041Z,12.88
2023-01-05T14:40:54.460Z,16.77
2023-01-05T14:43:20.957Z,15.00
2023-01-05T14:45:59.817Z,16.85
2023-01-05T14:48:40.153Z,15.02
2023-01-05T14:51:24.753Z,8.05
2023-01-05T14:53:54.552Z,12.48
2023-01-05T14:56:28.440Z,17.60
2023-01-05T14:59:05.271Z,13.85
2023-01-05T15:01:53.986Z,17.85
2023-01-05T15:04:29.705Z,20.33
2023-01-05T15:07:31.215Z,21.42
2023-01-05T15:10:19.090Z,24.13
2023-01-05T15:13:04.222Z,50.15
2023-01-05T15:15:42.928Z,69.35
2023-01-05T15:18:36.279Z,62.85
2023-01-05T15:21:40.315Z,71.43
2023-01-05T15:24:34.447Z,38.03
2023-01-05T15:27:05.109Z,48.50
2023-01-05T15:29:52.493Z,50.83
2023-01-05T15:32:28.410Z,45.58
2023-01-05T15:35:01.905Z,100.82
2023-01-05T15:37:37.436Z,41.20
2023-01-05T15:40:07.091Z,139.27
2023-01-05T15:42:45.146Z,99.88
2023-01-05T15:45:32.465Z,83.95
2023-01-05T15:48:08.421Z,24.33
2023-01-05T15:50:51.116Z,15.45
2023-01-05T15:55:50.009Z,18.67
2023-01-05T15:58:16.524Z,30.50
2023-01-05T16:00:43.112Z,27.73
2023-01-05T16:03:36.518Z,30.67
2023-01-05T16:06:19.619Z,21.15
2023-01-05T16:08:48.714Z,28.95
2023-01-05T16:11:23.892Z,20.70
2023-01-05T16:13:57.563Z,18.23
2023-01-05T16:16:53.642Z,20.55
2023-01-05T16:19:28.216Z,16.75
2023-01-05T16:21:59.641Z,16.33
2023-01-05T16:24:53.849Z,15.02
2023-01-05T16:27:20.813Z,20.15
2023-01-05T16:29:48.442Z,15.75
2023-01-05T16:32:54.775Z,14.00
2023-01-05T16:35:38.359Z,15.20
2023-01-05T16:38:11.907Z,13.00
2023-01-05T16:40:50.195Z,15.13
2023-01-05T16:43:28.243Z,14.35
2023-01-05T16:45:55.218Z,12.50
2023-01-05T16:48:36.897Z,13.80
2023-01-05T16:51:06.061Z,15.32
2023-01-05T16:53:34.407Z,20.00
2023-01-05T16:56:01.562Z,15.43
2023-01-05T16:58:37.896Z,16.05
2023-01-05T17:01:16.368Z,15.40
2023-01-05T17:03:44.143Z,16.15
2023-01-05T17:06:25.156Z,13.85
2023-01-05T17:08:53.498Z,16.23
2023-01-05T17:11:20.331Z,11.52
2023-01-05T17:13:50.804Z,15.40
2023-01-05T17:16:17.731Z,17.35
2023-01-05T17:18:44.674Z,15.82
2023-01-05T17:21:15.860Z,22.02
2023-01-05T17:23:45.848Z,22.65
2023-01-05T17:26:17.275Z,20.60
2023-01-05T17:28:43.951Z,18.15
2023-01-05T17:31:10.569Z,16.85
2023-01-05T17:33:37.192Z,13.60
2023-01-05T17:36:04.067Z,16.88
2023-01-05T17:38:30.607Z,16.75
2023-01-05T17:40:57.146Z,16.67
2023-01-05T17:43:24.035Z,17.00
2023-01-05T17:45:52.087Z,21.02
2023-01-05T17:48:18.688Z,21.17
2023-01-05T17:50:45.555Z,17.77
2023-01-05T17:53:12.128Z,17.80
2023-01-05T17:55:38.996Z,18.13
2023-01-05T17:58:05.612Z,12.55
2023-01-05T18:00:33.921Z,14.65
2023-01-05T18:03:01.155Z,13.32
2023-01-05T18:05:27.656Z,8.80
2023-01-05T18:07:54.203Z,11.52
2023-01-05T18:10:25.180Z,8.70
2023-01-05T18:12:53.410Z,15.05
2023-01-05T18:15:19.936Z,11.07
2023-01-05T18:17:46.463Z,8.63
2023-01-05T18:20:15.600Z,12.13
2023-01-05T18:22:43.481Z,9.57
2023-01-05T18:25:10.182Z,11.00
2023-01-05T18:27:36.671Z,9.13
2023-01-05T18:30:05.020Z,10.52
2023-01-05T18:32:31.573Z,16.98
2023-01-05T18:34:58.118Z,11.18
2023-01-05T18:37:24.597Z,11.02
2023-01-05T18:39:51.147Z,12.05
2023-01-05T18:42:17.740Z,9.68
2023-01-05T18:44:44.295Z,11.60
2023-01-05T18:47:10.858Z,11.20
2023-01-05T18:49:37.371Z,11.93
2023-01-05T18:52:04.027Z,9.55
2023-01-05T18:54:30.516Z,10.75
2023-01-05T18:56:57.089Z,12.77
2023-01-05T18:59:24.005Z,12.30
2023-01-05T19:01:50.570Z,10.55
2023-01-05T19:04:17.670Z,13.50
2023-01-05T19:06:44.412Z,13.07
2023-01-05T19:09:13.135Z,13.55
2023-01-05T19:11:44.618Z,11.02
2023-01-05T19:14:11.380Z,12.10
2023-01-05T19:16:37.941Z,14.40
2023-01-05T19:19:07.285Z,11.00
2023-01-05T19:21:36.225Z,12.43
2023-01-05T19:24:04.039Z,10.02
2023-01-05T19:26:31.931Z,10.60
2023-01-05T19:29:02.665Z,6.43
2023-01-05T19:31:29.597Z,7.05
2023-01-05T19:33:57.146Z,8.05
2023-01-05T19:36:24.683Z,7.65
2023-01-05T19:38:51.459Z,7.88
2023-01-05T19:41:23.986Z,7.47
2023-01-05T19:43:52.755Z,9.80
2023-01-05T19:46:21.624Z,7.68
2023-01-05T19:48:48.778Z,10.43
2023-01-05T19:51:18.557Z,7.18
2023-01-05T19:53:45.355Z,7.93
2023-01-05T19:56:15.817Z,7.35
2023-01-05T19:58:43.417Z,8.18
2023-01-05T20:01:15.812Z,7.82
2023-01-05T20:03:43.557Z,7.20
2023-01-05T20:06:16.246Z,7.63
2023-01-05T20:08:43.060Z,6.25
2023-01-05T20:11:13.545Z,7.32
2023-01-05T20:13:40.677Z,7.80
2023-01-05T20:16:10.081Z,6.78
2023-01-05T20:18:37.789Z,5.80
2023-01-05T20:21:07.715Z,14.10
2023-01-05T20:26:12.968Z,7.50
2023-01-05T20:28:40.072Z,6.55
2023-01-05T20:31:21.576Z,6.25
2023-01-05T20:33:48.792Z,8.32
2023-01-05T20:36:15.358Z,7.13
2023-01-05T20:38:42.179Z,8.07
2023-01-05T20:41:15.944Z,9.73
2023-01-05T20:43:44.088Z,9.32
2023-01-05T20:46:11.773Z,8.07
2023-01-05T20:48:38.574Z,8.35
2023-01-05T20:51:12.431Z,8.23
2023-01-05T20:53:39.577Z,6.90
2023-01-05T20:56:08.178Z,7.15
2023-01-05T20:58:35.579Z,5.63
2023-01-05T21:01:10.603Z,6.70
2023-01-05T21:06:06.415Z,6.68
2023-01-05T21:08:33.204Z,8.40
2023-01-05T21:11:01.191Z,8.20
2023-01-05T21:13:30.762Z,7.75
2023-01-05T21:16:03.450Z,9.18
2023-01-05T21:18:31.480Z,11.88
2023-01-05T21:20:58.966Z,9.63
2023-01-05T21:23:25.699Z,10.48
2023-01-05T21:26:05.885Z,8.45
2023-01-05T21:28:36.324Z,9.73
2023-01-05T21:31:05.613Z,9.45
2023-01-05T21:33:32.235Z,8.35
2023-01-05T21:35:59.014Z,7.85
2023-01-05T21:38:25.929Z,5.85
2023-01-05T21:41:12.434Z,8.98
2023-01-05T21:43:38.955Z,5.93
2023-01-05T21:46:07.506Z,8.38
2023-01-05T21:48:35.191Z,6.22
2023-01-05T21:51:02.373Z,8.05
2023-01-05T21:53:28.945Z,5.40
2023-01-05T21:55:55.402Z,6.28
2023-01-05T21:58:21.897Z,4.85
2023-01-05T22:00:48.530Z,5.07
2023-01-05T22:03:15.064Z,5.75
2023-01-05T22:05:41.623Z,5.40
2023-01-05T22:08:08.198Z,4.30
2023-01-05T22:10:34.698Z,5.20
2023-01-05T22:13:01.193Z,6.10
2023-01-05T22:15:27.670Z,5.00
2023-01-05T22:17:54.200Z,5.80
2023-01-05T22:20:20.782Z,4.85
2023-01-05T22:22:47.259Z,6.78
2023-01-05T22:25:13.908Z,3.53
2023-01-05T22:27:40.451Z,2.83
2023-01-05T22:30:07.723Z,3.22
2023-01-05T22:32:35.555Z,2.95
2023-01-05T22:35:02.306Z,6.90
2023-01-05T22:37:28.849Z,4.07
2023-01-05T22:39:55.429Z,5.93
2023-01-05T22:42:22.025Z,6.07
2023-01-05T22:44:48.502Z,4.72
2023-01-05T22:47:15.164Z,5.78
2023-01-05T22:49:41.723Z,5.10
2023-01-05T22:52:08.253Z,5.00
2023-01-05T22:54:34.913Z,4.28
2023-01-05T22:57:01.484Z,6.32
2023-01-05T22:59:28.745Z,4.25
2023-01-05T23:01:55.351Z,3.42
2023-01-05T23:04:21.983Z,5.20
2023-01-05T23:06:48.514Z,4.32
2023-01-05T23:09:16.670Z,5.95
2023-01-05T23:11:46.150Z,6.40
2023-01-05T23:14:13.554Z,5.05
2023-01-05T23:16:40.179Z,5.35
2023-01-05T23:19:08.177Z,4.68
2023-01-05T23:21:34.800Z,5.18
2023-01-05T23:24:01.791Z,4.60
2023-01-05T23:26:28.371Z,5.00
2023-01-05T23:28:55.671Z,3.95
2023-01-05T23:31:22.824Z,5.45
2023-01-05T23:33:49.807Z,4.72
2023-01-05T23:36:17.730Z,5.07
2023-01-05T23:38:45.091Z,4.32
2023-01-05T23:41:13.378Z,4.97
2023-01-05T23:43:41.453Z,2.30
2023-01-05T23:46:13.929Z,2.95
2023-01-05T23:48:40.504Z,2.03
2023-01-05T23:51:08.706Z,2.72
2023-01-05T23:53:35.727Z,3.35
2023-01-05T23:56:08.122Z,4.55
2023-01-05T23:58:34.869Z,3.28
